sensor_id;sensor_type;location;lat;lon;timestamp;P1;durP1;ratioP1;P2;durP2;ratioP2
6832;SDS011;3454;42.654;23.378;2022-12-18T00:01:21;4.20;;;3.60;;
6832;SDS011;3454;42.654;23.378;2022-12-18T00:03:51;4.77;;;3.47;;
6832;SDS011;3454;42.654;23.378;2022-12-18T00:06:18;5.13;;;3.67;;
6832;SDS011;3454;42.654;23.378;2022-12-18T00:08:45;5.60;;;3.73;;
6832;SDS011;3454;42.654;23.378;2022-12-18T00:11:11;5.57;;;4.00;;
6832;SDS011;3454;42.654;23.378;2022-12-18T00:16:05;6.90;;;5.47;;
6832;SDS011;3454;42.654;23.378;2022-12-18T00:18:31;7.27;;;4.77;;
6832;SDS011;3454;42.654;23.378;2022-12-18T00:21:01;6.13;;;4.33;;
6832;SDS011;3454;42.654;23.378;2022-12-18T00:23:28;6.33;;;4.27;;
6832;SDS011;3454;42.654;23.378;2022-12-18T00:25:54;6.30;;;4.57;;
6832;SDS011;3454;42.654;23.378;2022-12-18T00:28:23;6.80;;;4.70;;
6832;SDS011;3454;42.654;23.378;2022-12-18T00:30:48;5.37;;;4.00;;
6832;SDS011;3454;42.654;23.378;2022-12-18T00:33:16;6.27;;;4.53;;
6832;SDS011;3454;42.654;23.378;2022-12-18T00:35:42;5.07;;;3.63;;
6832;SDS011;3454;42.654;23.378;2022-12-18T00:38:07;8.20;;;5.10;;
6832;SDS011;3454;42.654;23.378;2022-12-18T00:40:32;8.07;;;4.80;;
6832;SDS011;3454;42.654;23.378;2022-12-18T00:42:58;8.27;;;4.47;;
6832;SDS011;3454;42.654;23.378;2022-12-18T00:45:25;9.70;;;4.70;;
6832;SDS011;3454;42.654;23.378;2022-12-18T00:47:51;5.03;;;3.87;;
6832;SDS011;3454;42.654;23.378;2022-12-18T00:50:17;6.60;;;4.37;;
6832;SDS011;3454;42.654;23.378;2022-12-18T00:52:42;6.43;;;4.83;;
6832;SDS011;3454;42.654;23.378;2022-12-18T00:55:08;6.93;;;4.70;;
6832;SDS011;3454;42.654;23.378;2022-12-18T00:57:33;4.73;;;3.73;;
6832;SDS011;3454;42.654;23.378;2022-12-18T00:59:59;6.53;;;4.10;;
6832;SDS011;3454;42.654;23.378;2022-12-18T01:02:24;7.70;;;4.73;;
6832;SDS011;3454;42.654;23.378;2022-12-18T01:04:50;5.80;;;4.23;;
6832;SDS011;3454;42.654;23.378;2022-12-18T01:07:15;8.37;;;4.67;;
6832;SDS011;3454;42.654;23.378;2022-12-18T01:09:40;5.57;;;4.03;;
6832;SDS011;3454;42.654;23.378;2022-12-18T01:12:06;6.33;;;4.73;;
6832;SDS011;3454;42.654;23.378;2022-12-18T01:14:31;9.40;;;5.17;;
6832;SDS011;3454;42.654;23.378;2022-12-18T01:16:57;8.83;;;4.97;;
6832;SDS011;3454;42.654;23.378;2022-12-18T01:19:22;6.30;;;4.00;;
6832;SDS011;3454;42.654;23.378;2022-12-18T01:21:48;7.50;;;4.47;;
6832;SDS011;3454;42.654;23.378;2022-12-18T01:24:14;6.93;;;4.50;;
6832;SDS011;3454;42.654;23.378;2022-12-18T01:26:39;5.13;;;4.33;;
6832;SDS011;3454;42.654;23.378;2022-12-18T01:29:05;7.57;;;4.90;;
6832;SDS011;3454;42.654;23.378;2022-12-18T01:31:31;7.50;;;5.07;;
6832;SDS011;3454;42.654;23.378;2022-12-18T01:34:02;8.43;;;4.60;;
6832;SDS011;3454;42.654;23.378;2022-12-18T01:36:30;8.07;;;4.83;;
6832;SDS011;3454;42.654;23.378;2022-12-18T01:39:01;8.83;;;5.27;;
6832;SDS011;3454;42.654;23.378;2022-12-18T01:41:30;6.83;;;4.80;;
6832;SDS011;3454;42.654;23.378;2022-12-18T01:47:41;8.17;;;5.00;;
6832;SDS011;3454;42.654;23.378;2022-12-18T01:52:41;7.13;;;5.17;;
6832;SDS011;3454;42.654;23.378;2022-12-18T01:55:09;9.97;;;5.30;;
6832;SDS011;3454;42.654;23.378;2022-12-18T01:57:36;8.43;;;5.03;;
6832;SDS011;3454;42.654;23.378;2022-12-18T02:00:11;7.93;;;4.87;;
6832;SDS011;3454;42.654;23.378;2022-12-18T02:02:42;6.40;;;4.57;;
6832;SDS011;3454;42.654;23.378;2022-12-18T02:05:10;8.53;;;5.47;;
6832;SDS011;3454;42.654;23.378;2022-12-18T02:13:11;9.03;;;5.40;;
6832;SDS011;3454;42.654;23.378;2022-12-18T02:15:54;7.03;;;4.87;;
6832;SDS011;3454;42.654;23.378;2022-12-18T02:18:28;9.97;;;5.70;;
6832;SDS011;3454;42.654;23.378;2022-12-18T02:26:37;7.50;;;5.43;;
6832;SDS011;3454;42.654;23.378;2022-12-18T02:29:13;8.70;;;5.57;;
6832;SDS011;3454;42.654;23.378;2022-12-18T02:31:44;7.97;;;5.00;;
6832;SDS011;3454;42.654;23.378;2022-12-18T02:34:14;9.00;;;5.23;;
6832;SDS011;3454;42.654;23.378;2022-12-18T02:36:43;8.70;;;5.20;;
6832;SDS011;3454;42.654;23.378;2022-12-18T02:39:11;8.60;;;5.80;;
6832;SDS011;3454;42.654;23.378;2022-12-18T02:41:38;8.00;;;5.07;;
6832;SDS011;3454;42.654;23.378;2022-12-18T02:44:11;8.20;;;5.03;;
6832;SDS011;3454;42.654;23.378;2022-12-18T02:46:39;7.60;;;4.97;;
6832;SDS011;3454;42.654;23.378;2022-12-18T02:51:53;6.90;;;4.53;;
6832;SDS011;3454;42.654;23.378;2022-12-18T02:54:30;7.23;;;4.60;;
6832;SDS011;3454;42.654;23.378;2022-12-18T02:57:02;6.50;;;4.07;;
6832;SDS011;3454;42.654;23.378;2022-12-18T02:59:41;8.20;;;5.00;;
6832;SDS011;3454;42.654;23.378;2022-12-18T03:02:18;6.03;;;4.43;;
6832;SDS011;3454;42.654;23.378;2022-12-18T03:05:30;8.20;;;5.20;;
6832;SDS011;3454;42.654;23.378;2022-12-18T03:07:42;7.50;;;5.23;;
6832;SDS011;3454;42.654;23.378;2022-12-18T03:10:12;8.43;;;5.63;;
6832;SDS011;3454;42.654;23.378;2022-12-18T03:12:43;10.07;;;5.33;;
6832;SDS011;3454;42.654;23.378;2022-12-18T03:15:22;7.77;;;4.87;;
6832;SDS011;3454;42.654;23.378;2022-12-18T03:17:57;8.00;;;5.17;;
6832;SDS011;3454;42.654;23.378;2022-12-18T03:20:26;7.40;;;5.13;;
6832;SDS011;3454;42.654;23.378;2022-12-18T03:22:57;8.13;;;5.33;;
6832;SDS011;3454;42.654;23.378;2022-12-18T03:25:27;9.07;;;4.87;;
6832;SDS011;3454;42.654;23.378;2022-12-18T03:27:55;6.43;;;4.30;;
6832;SDS011;3454;42.654;23.378;2022-12-18T03:30:24;6.37;;;4.47;;
6832;SDS011;3454;42.654;23.378;2022-12-18T03:35:49;6.90;;;4.50;;
6832;SDS011;3454;42.654;23.378;2022-12-18T03:38:14;7.80;;;5.30;;
6832;SDS011;3454;42.654;23.378;2022-12-18T03:43:26;6.07;;;4.30;;
6832;SDS011;3454;42.654;23.378;2022-12-18T03:46:15;7.23;;;4.90;;
6832;SDS011;3454;42.654;23.378;2022-12-18T03:48:52;7.03;;;4.63;;
6832;SDS011;3454;42.654;23.378;2022-12-18T03:51:25;8.73;;;5.00;;
6832;SDS011;3454;42.654;23.378;2022-12-18T03:54:00;7.97;;;4.90;;
6832;SDS011;3454;42.654;23.378;2022-12-18T03:56:29;6.73;;;4.57;;
6832;SDS011;3454;42.654;23.378;2022-12-18T03:58:58;8.07;;;4.43;;
6832;SDS011;3454;42.654;23.378;2022-12-18T04:01:31;6.70;;;4.80;;
6832;SDS011;3454;42.654;23.378;2022-12-18T04:03:59;6.73;;;5.10;;
6832;SDS011;3454;42.654;23.378;2022-12-18T04:06:27;9.20;;;5.70;;
6832;SDS011;3454;42.654;23.378;2022-12-18T04:08:54;8.63;;;5.10;;
6832;SDS011;3454;42.654;23.378;2022-12-18T04:11:21;7.63;;;5.73;;
6832;SDS011;3454;42.654;23.378;2022-12-18T04:13:46;8.10;;;5.10;;
6832;SDS011;3454;42.654;23.378;2022-12-18T04:16:12;7.07;;;4.67;;
6832;SDS011;3454;42.654;23.378;2022-12-18T04:18:37;8.20;;;5.23;;
6832;SDS011;3454;42.654;23.378;2022-12-18T04:21:02;7.60;;;4.67;;
6832;SDS011;3454;42.654;23.378;2022-12-18T04:23:28;7.20;;;4.67;;
6832;SDS011;3454;42.654;23.378;2022-12-18T04:25:54;9.37;;;5.63;;
6832;SDS011;3454;42.654;23.378;2022-12-18T04:28:19;9.60;;;5.17;;
6832;SDS011;3454;42.654;23.378;2022-12-18T04:30:45;7.87;;;5.30;;
6832;SDS011;3454;42.654;23.378;2022-12-18T04:33:14;7.53;;;5.73;;
6832;SDS011;3454;42.654;23.378;2022-12-18T04:35:42;10.07;;;6.97;;
6832;SDS011;3454;42.654;23.378;2022-12-18T04:38:08;9.87;;;5.30;;
6832;SDS011;3454;42.654;23.378;2022-12-18T04:40:35;7.77;;;5.07;;
6832;SDS011;3454;42.654;23.378;2022-12-18T04:43:01;10.37;;;6.23;;
6832;SDS011;3454;42.654;23.378;2022-12-18T04:45:27;10.07;;;5.97;;
6832;SDS011;3454;42.654;23.378;2022-12-18T04:47:53;9.77;;;5.57;;
6832;SDS011;3454;42.654;23.378;2022-12-18T04:50:18;9.40;;;5.93;;
6832;SDS011;3454;42.654;23.378;2022-12-18T04:52:43;9.20;;;5.60;;
6832;SDS011;3454;42.654;23.378;2022-12-18T04:55:09;10.10;;;6.57;;
6832;SDS011;3454;42.654;23.378;2022-12-18T04:57:34;9.67;;;6.47;;
6832;SDS011;3454;42.654;23.378;2022-12-18T05:00:00;13.93;;;7.13;;
6832;SDS011;3454;42.654;23.378;2022-12-18T05:02:25;11.07;;;6.80;;
6832;SDS011;3454;42.654;23.378;2022-12-18T05:04:52;11.40;;;6.70;;
6832;SDS011;3454;42.654;23.378;2022-12-18T05:07:17;13.10;;;6.90;;
6832;SDS011;3454;42.654;23.378;2022-12-18T05:09:43;10.43;;;6.60;;
6832;SDS011;3454;42.654;23.378;2022-12-18T05:12:08;12.30;;;7.17;;
6832;SDS011;3454;42.654;23.378;2022-12-18T05:14:33;12.20;;;6.63;;
6832;SDS011;3454;42.654;23.378;2022-12-18T05:16:59;11.43;;;7.27;;
6832;SDS011;3454;42.654;23.378;2022-12-18T05:19:24;12.33;;;6.80;;
6832;SDS011;3454;42.654;23.378;2022-12-18T05:21:50;13.73;;;8.00;;
6832;SDS011;3454;42.654;23.378;2022-12-18T05:24:15;8.97;;;6.47;;
6832;SDS011;3454;42.654;23.378;2022-12-18T05:26:41;13.80;;;6.77;;
6832;SDS011;3454;42.654;23.378;2022-12-18T05:29:06;13.53;;;7.10;;
6832;SDS011;3454;42.654;23.378;2022-12-18T05:31:31;13.10;;;7.00;;
6832;SDS011;3454;42.654;23.378;2022-12-18T05:33:57;12.43;;;6.60;;
6832;SDS011;3454;42.654;23.378;2022-12-18T05:36:22;13.20;;;7.40;;
6832;SDS011;3454;42.654;23.378;2022-12-18T05:38:48;11.37;;;6.93;;
6832;SDS011;3454;42.654;23.378;2022-12-18T05:41:13;12.53;;;7.73;;
6832;SDS011;3454;42.654;23.378;2022-12-18T05:43:39;11.40;;;7.33;;
6832;SDS011;3454;42.654;23.378;2022-12-18T05:46:05;10.63;;;6.90;;
6832;SDS011;3454;42.654;23.378;2022-12-18T05:48:32;16.20;;;8.03;;
6832;SDS011;3454;42.654;23.378;2022-12-18T05:51:02;11.47;;;7.30;;
6832;SDS011;3454;42.654;23.378;2022-12-18T05:53:32;13.27;;;7.23;;
6832;SDS011;3454;42.654;23.378;2022-12-18T05:56:02;12.23;;;7.00;;
6832;SDS011;3454;42.654;23.378;2022-12-18T05:58:29;15.70;;;8.70;;
6832;SDS011;3454;42.654;23.378;2022-12-18T06:00:55;14.00;;;8.07;;
6832;SDS011;3454;42.654;23.378;2022-12-18T06:03:21;15.83;;;8.90;;
6832;SDS011;3454;42.654;23.378;2022-12-18T06:05:47;19.43;;;9.33;;
6832;SDS011;3454;42.654;23.378;2022-12-18T06:08:12;12.10;;;7.90;;
6832;SDS011;3454;42.654;23.378;2022-12-18T06:10:38;14.80;;;9.03;;
6832;SDS011;3454;42.654;23.378;2022-12-18T06:13:04;12.97;;;7.93;;
6832;SDS011;3454;42.654;23.378;2022-12-18T06:15:30;14.60;;;7.70;;
6832;SDS011;3454;42.654;23.378;2022-12-18T06:17:56;16.73;;;8.20;;
6832;SDS011;3454;42.654;23.378;2022-12-18T06:20:21;13.00;;;8.23;;
6832;SDS011;3454;42.654;23.378;2022-12-18T06:22:47;15.57;;;8.20;;
6832;SDS011;3454;42.654;23.378;2022-12-18T06:25:12;12.37;;;7.47;;
6832;SDS011;3454;42.654;23.378;2022-12-18T06:27:38;12.33;;;7.43;;
6832;SDS011;3454;42.654;23.378;2022-12-18T06:30:03;18.20;;;8.93;;
6832;SDS011;3454;42.654;23.378;2022-12-18T06:32:30;15.33;;;8.37;;
6832;SDS011;3454;42.654;23.378;2022-12-18T06:34:55;15.80;;;9.40;;
6832;SDS011;3454;42.654;23.378;2022-12-18T06:37:21;13.60;;;7.90;;
6832;SDS011;3454;42.654;23.378;2022-12-18T06:39:49;14.70;;;9.17;;
6832;SDS011;3454;42.654;23.378;2022-12-18T06:42:15;14.87;;;9.07;;
6832;SDS011;3454;42.654;23.378;2022-12-18T06:44:40;16.17;;;9.10;;
6832;SDS011;3454;42.654;23.378;2022-12-18T06:47:06;13.70;;;8.23;;
6832;SDS011;3454;42.654;23.378;2022-12-18T06:49:31;15.17;;;8.93;;
6832;SDS011;3454;42.654;23.378;2022-12-18T06:51:56;15.60;;;8.90;;
6832;SDS011;3454;42.654;23.378;2022-12-18T06:54:22;15.10;;;9.20;;
6832;SDS011;3454;42.654;23.378;2022-12-18T06:56:47;14.27;;;7.83;;
6832;SDS011;3454;42.654;23.378;2022-12-18T06:59:13;15.63;;;8.73;;
6832;SDS011;3454;42.654;23.378;2022-12-18T07:01:39;15.47;;;9.07;;
6832;SDS011;3454;42.654;23.378;2022-12-18T07:04:05;16.83;;;9.10;;
6832;SDS011;3454;42.654;23.378;2022-12-18T07:06:30;15.13;;;8.33;;
6832;SDS011;3454;42.654;23.378;2022-12-18T07:08:56;12.43;;;7.53;;
6832;SDS011;3454;42.654;23.378;2022-12-18T07:11:21;16.73;;;8.97;;
6832;SDS011;3454;42.654;23.378;2022-12-18T07:13:47;17.00;;;8.97;;
6832;SDS011;3454;42.654;23.378;2022-12-18T07:16:13;17.17;;;8.50;;
6832;SDS011;3454;42.654;23.378;2022-12-18T07:18:41;14.43;;;8.43;;
6832;SDS011;3454;42.654;23.378;2022-12-18T07:21:07;16.13;;;8.80;;
6832;SDS011;3454;42.654;23.378;2022-12-18T07:23:34;16.57;;;9.63;;
6832;SDS011;3454;42.654;23.378;2022-12-18T07:26:04;14.20;;;8.70;;
6832;SDS011;3454;42.654;23.378;2022-12-18T07:28:32;16.63;;;10.03;;
6832;SDS011;3454;42.654;23.378;2022-12-18T07:30:58;14.40;;;7.60;;
6832;SDS011;3454;42.654;23.378;2022-12-18T07:33:27;14.97;;;9.07;;
6832;SDS011;3454;42.654;23.378;2022-12-18T07:35:53;17.40;;;10.40;;
6832;SDS011;3454;42.654;23.378;2022-12-18T07:38:19;16.63;;;9.87;;
6832;SDS011;3454;42.654;23.378;2022-12-18T07:40:44;15.23;;;9.70;;
6832;SDS011;3454;42.654;23.378;2022-12-18T07:43:09;15.10;;;9.57;;
6832;SDS011;3454;42.654;23.378;2022-12-18T07:45:35;16.50;;;10.40;;
6832;SDS011;3454;42.654;23.378;2022-12-18T07:48:00;14.53;;;10.03;;
6832;SDS011;3454;42.654;23.378;2022-12-18T07:50:25;17.60;;;9.53;;
6832;SDS011;3454;42.654;23.378;2022-12-18T07:52:51;16.90;;;10.73;;
6832;SDS011;3454;42.654;23.378;2022-12-18T07:55:16;19.00;;;9.70;;
6832;SDS011;3454;42.654;23.378;2022-12-18T07:57:41;20.03;;;9.93;;
6832;SDS011;3454;42.654;23.378;2022-12-18T08:00:07;16.57;;;10.77;;
6832;SDS011;3454;42.654;23.378;2022-12-18T08:02:33;16.30;;;9.83;;
6832;SDS011;3454;42.654;23.378;2022-12-18T08:05:05;20.80;;;11.80;;
6832;SDS011;3454;42.654;23.378;2022-12-18T08:07:31;18.73;;;11.23;;
6832;SDS011;3454;42.654;23.378;2022-12-18T08:09:56;19.73;;;11.83;;
6832;SDS011;3454;42.654;23.378;2022-12-18T08:12:22;26.33;;;11.20;;
6832;SDS011;3454;42.654;23.378;2022-12-18T08:14:48;20.97;;;11.63;;
6832;SDS011;3454;42.654;23.378;2022-12-18T08:17:13;18.23;;;11.07;;
6832;SDS011;3454;42.654;23.378;2022-12-18T08:19:38;18.50;;;10.90;;
6832;SDS011;3454;42.654;23.378;2022-12-18T08:22:04;20.77;;;12.23;;
6832;SDS011;3454;42.654;23.378;2022-12-18T08:24:29;20.00;;;11.50;;
6832;SDS011;3454;42.654;23.378;2022-12-18T08:26:55;22.70;;;12.07;;
6832;SDS011;3454;42.654;23.378;2022-12-18T08:29:22;21.37;;;12.43;;
6832;SDS011;3454;42.654;23.378;2022-12-18T08:31:47;19.33;;;10.57;;
6832;SDS011;3454;42.654;23.378;2022-12-18T08:34:14;20.43;;;11.63;;
6832;SDS011;3454;42.654;23.378;2022-12-18T08:36:39;23.13;;;11.57;;
6832;SDS011;3454;42.654;23.378;2022-12-18T08:39:05;49.50;;;21.77;;
6832;SDS011;3454;42.654;23.378;2022-12-18T08:41:30;19.90;;;11.70;;
6832;SDS011;3454;42.654;23.378;2022-12-18T08:43:56;21.27;;;11.77;;
6832;SDS011;3454;42.654;23.378;2022-12-18T08:46:40;25.87;;;10.43;;
6832;SDS011;3454;42.654;23.378;2022-12-18T08:49:08;20.70;;;11.20;;
6832;SDS011;3454;42.654;23.378;2022-12-18T08:51:35;18.50;;;10.37;;
6832;SDS011;3454;42.654;23.378;2022-12-18T08:54:01;21.17;;;11.70;;
6832;SDS011;3454;42.654;23.378;2022-12-18T08:56:33;18.70;;;11.20;;
6832;SDS011;3454;42.654;23.378;2022-12-18T08:58:59;23.77;;;10.73;;
6832;SDS011;3454;42.654;23.378;2022-12-18T09:01:24;19.17;;;10.67;;
6832;SDS011;3454;42.654;23.378;2022-12-18T09:03:50;20.73;;;11.63;;
6832;SDS011;3454;42.654;23.378;2022-12-18T09:06:16;22.43;;;10.53;;
6832;SDS011;3454;42.654;23.378;2022-12-18T09:08:43;17.43;;;9.97;;
6832;SDS011;3454;42.654;23.378;2022-12-18T09:11:13;21.67;;;11.80;;
6832;SDS011;3454;42.654;23.378;2022-12-18T09:13:49;18.97;;;10.13;;
6832;SDS011;3454;42.654;23.378;2022-12-18T09:16:15;17.93;;;10.00;;
6832;SDS011;3454;42.654;23.378;2022-12-18T09:18:41;19.77;;;10.63;;
6832;SDS011;3454;42.654;23.378;2022-12-18T09:21:08;19.67;;;11.13;;
6832;SDS011;3454;42.654;23.378;2022-12-18T09:23:48;20.33;;;11.27;;
6832;SDS011;3454;42.654;23.378;2022-12-18T09:26:15;16.23;;;9.57;;
6832;SDS011;3454;42.654;23.378;2022-12-18T09:28:41;17.27;;;10.73;;
6832;SDS011;3454;42.654;23.378;2022-12-18T09:31:07;18.50;;;10.53;;
6832;SDS011;3454;42.654;23.378;2022-12-18T09:33:35;18.20;;;10.50;;
6832;SDS011;3454;42.654;23.378;2022-12-18T09:36:02;19.70;;;10.57;;
6832;SDS011;3454;42.654;23.378;2022-12-18T09:38:29;20.23;;;10.90;;
6832;SDS011;3454;42.654;23.378;2022-12-18T09:40:57;17.83;;;10.27;;
6832;SDS011;3454;42.654;23.378;2022-12-18T09:46:08;22.67;;;10.83;;
6832;SDS011;3454;42.654;23.378;2022-12-18T09:48:41;15.00;;;9.37;;
6832;SDS011;3454;42.654;23.378;2022-12-18T09:51:16;16.43;;;10.03;;
6832;SDS011;3454;42.654;23.378;2022-12-18T09:53:53;18.70;;;10.20;;
6832;SDS011;3454;42.654;23.378;2022-12-18T09:56:24;18.60;;;9.73;;
6832;SDS011;3454;42.654;23.378;2022-12-18T09:58:55;18.57;;;9.83;;
6832;SDS011;3454;42.654;23.378;2022-12-18T10:01:24;15.23;;;9.30;;
6832;SDS011;3454;42.654;23.378;2022-12-18T10:03:50;18.63;;;9.20;;
6832;SDS011;3454;42.654;23.378;2022-12-18T10:06:21;15.87;;;9.63;;
6832;SDS011;3454;42.654;23.378;2022-12-18T10:13:57;16.63;;;9.27;;
6832;SDS011;3454;42.654;23.378;2022-12-18T10:16:38;16.63;;;9.50;;
6832;SDS011;3454;42.654;23.378;2022-12-18T10:24:46;18.07;;;10.27;;
6832;SDS011;3454;42.654;23.378;2022-12-18T10:27:23;17.07;;;9.87;;
6832;SDS011;3454;42.654;23.378;2022-12-18T10:29:51;18.77;;;9.60;;
6832;SDS011;3454;42.654;23.378;2022-12-18T10:32:22;15.17;;;9.70;;
6832;SDS011;3454;42.654;23.378;2022-12-18T10:34:53;18.07;;;10.37;;
6832;SDS011;3454;42.654;23.378;2022-12-18T10:37:21;17.20;;;9.23;;
6832;SDS011;3454;42.654;23.378;2022-12-18T10:40:06;16.53;;;9.63;;
6832;SDS011;3454;42.654;23.378;2022-12-18T10:42:37;18.03;;;10.60;;
6832;SDS011;3454;42.654;23.378;2022-12-18T10:45:05;18.70;;;10.40;;
6832;SDS011;3454;42.654;23.378;2022-12-18T10:47:35;17.80;;;10.43;;
6832;SDS011;3454;42.654;23.378;2022-12-18T10:50:02;19.10;;;9.80;;
6832;SDS011;3454;42.654;23.378;2022-12-18T10:52:28;17.37;;;9.53;;
6832;SDS011;3454;42.654;23.378;2022-12-18T10:54:58;18.87;;;10.40;;
6832;SDS011;3454;42.654;23.378;2022-12-18T10:59:54;18.53;;;10.73;;
6832;SDS011;3454;42.654;23.378;2022-12-18T11:02:28;23.37;;;10.73;;
6832;SDS011;3454;42.654;23.378;2022-12-18T11:05:00;19.20;;;10.43;;
6832;SDS011;3454;42.654;23.378;2022-12-18T11:07:26;22.67;;;10.77;;
6832;SDS011;3454;42.654;23.378;2022-12-18T11:10:22;19.57;;;10.80;;
6832;SDS011;3454;42.654;23.378;2022-12-18T11:12:51;19.03;;;10.27;;
6832;SDS011;3454;42.654;23.378;2022-12-18T11:15:29;20.60;;;10.63;;
6832;SDS011;3454;42.654;23.378;2022-12-18T11:17:55;23.60;;;12.47;;
6832;SDS011;3454;42.654;23.378;2022-12-18T11:20:23;19.40;;;10.87;;
6832;SDS011;3454;42.654;23.378;2022-12-18T11:22:59;21.40;;;9.70;;
6832;SDS011;3454;42.654;23.378;2022-12-18T11:25:27;16.67;;;9.40;;
6832;SDS011;3454;42.654;23.378;2022-12-18T11:33:05;19.43;;;10.33;;
6832;SDS011;3454;42.654;23.378;2022-12-18T11:40:45;15.57;;;8.90;;
6832;SDS011;3454;42.654;23.378;2022-12-18T11:43:17;17.07;;;9.17;;
6832;SDS011;3454;42.654;23.378;2022-12-18T11:45:59;16.70;;;9.53;;
6832;SDS011;3454;42.654;23.378;2022-12-18T11:48:41;14.50;;;8.07;;
6832;SDS011;3454;42.654;23.378;2022-12-18T11:54:18;18.97;;;9.87;;
6832;SDS011;3454;42.654;23.378;2022-12-18T11:56:46;16.37;;;10.43;;
6832;SDS011;3454;42.654;23.378;2022-12-18T11:59:20;20.13;;;9.73;;
6832;SDS011;3454;42.654;23.378;2022-12-18T12:01:55;19.03;;;9.30;;
6832;SDS011;3454;42.654;23.378;2022-12-18T12:26:12;17.53;;;8.97;;
6832;SDS011;3454;42.654;23.378;2022-12-18T12:34:19;16.07;;;9.07;;
6832;SDS011;3454;42.654;23.378;2022-12-18T12:39:46;16.87;;;9.20;;
6832;SDS011;3454;42.654;23.378;2022-12-18T12:43:00;18.00;;;11.10;;
6832;SDS011;3454;42.654;23.378;2022-12-18T12:46:10;18.80;;;9.90;;
6832;SDS011;3454;42.654;23.378;2022-12-18T12:53:43;20.17;;;10.30;;
6832;SDS011;3454;42.654;23.378;2022-12-18T12:56:11;17.37;;;9.73;;
6832;SDS011;3454;42.654;23.378;2022-12-18T13:01:25;16.37;;;10.97;;
6832;SDS011;3454;42.654;23.378;2022-12-18T13:08:58;18.10;;;10.13;;
6832;SDS011;3454;42.654;23.378;2022-12-18T13:11:32;18.50;;;9.80;;
6832;SDS011;3454;42.654;23.378;2022-12-18T13:14:22;20.67;;;10.00;;
6832;SDS011;3454;42.654;23.378;2022-12-18T13:16:51;18.87;;;10.53;;
6832;SDS011;3454;42.654;23.378;2022-12-18T13:19:21;18.13;;;9.83;;
6832;SDS011;3454;42.654;23.378;2022-12-18T13:21:53;16.77;;;9.37;;
6832;SDS011;3454;42.654;23.378;2022-12-18T13:24:30;14.97;;;9.60;;
6832;SDS011;3454;42.654;23.378;2022-12-18T13:26:56;18.43;;;11.23;;
6832;SDS011;3454;42.654;23.378;2022-12-18T13:29:40;17.17;;;10.10;;
6832;SDS011;3454;42.654;23.378;2022-12-18T13:32:18;18.60;;;10.07;;
6832;SDS011;3454;42.654;23.378;2022-12-18T13:34:48;19.00;;;10.47;;
6832;SDS011;3454;42.654;23.378;2022-12-18T13:39:58;21.87;;;11.00;;
6832;SDS011;3454;42.654;23.378;2022-12-18T13:45:31;18.30;;;9.93;;
6832;SDS011;3454;42.654;23.378;2022-12-18T13:48:04;21.43;;;10.13;;
6832;SDS011;3454;42.654;23.378;2022-12-18T13:50:38;19.10;;;10.77;;
6832;SDS011;3454;42.654;23.378;2022-12-18T13:53:04;19.90;;;10.97;;
6832;SDS011;3454;42.654;23.378;2022-12-18T13:55:30;18.97;;;10.00;;
6832;SDS011;3454;42.654;23.378;2022-12-18T13:58:05;19.83;;;12.27;;
6832;SDS011;3454;42.654;23.378;2022-12-18T14:00:31;20.07;;;11.30;;
6832;SDS011;3454;42.654;23.378;2022-12-18T14:02:57;20.37;;;11.63;;
6832;SDS011;3454;42.654;23.378;2022-12-18T14:05:24;18.57;;;11.37;;
6832;SDS011;3454;42.654;23.378;2022-12-18T14:07:52;20.77;;;11.90;;
6832;SDS011;3454;42.654;23.378;2022-12-18T14:10:19;19.83;;;11.40;;
6832;SDS011;3454;42.654;23.378;2022-12-18T14:12:49;22.20;;;11.37;;
6832;SDS011;3454;42.654;23.378;2022-12-18T14:17:50;20.77;;;11.70;;
6832;SDS011;3454;42.654;23.378;2022-12-18T14:20:18;20.17;;;11.33;;
6832;SDS011;3454;42.654;23.378;2022-12-18T14:22:45;21.67;;;11.60;;
6832;SDS011;3454;42.654;23.378;2022-12-18T14:27:38;18.90;;;10.87;;
6832;SDS011;3454;42.654;23.378;2022-12-18T14:33:03;18.17;;;10.20;;
6832;SDS011;3454;42.654;23.378;2022-12-18T14:36:01;19.87;;;10.40;;
6832;SDS011;3454;42.654;23.378;2022-12-18T14:38:27;18.60;;;10.30;;
6832;SDS011;3454;42.654;23.378;2022-12-18T14:40:56;18.53;;;10.50;;
6832;SDS011;3454;42.654;23.378;2022-12-18T14:43:31;16.73;;;10.03;;
6832;SDS011;3454;42.654;23.378;2022-12-18T14:45:58;16.70;;;9.20;;
6832;SDS011;3454;42.654;23.378;2022-12-18T14:53:38;18.17;;;10.87;;
6832;SDS011;3454;42.654;23.378;2022-12-18T14:56:14;14.67;;;8.70;;
6832;SDS011;3454;42.654;23.378;2022-12-18T14:58:43;19.10;;;9.63;;
6832;SDS011;3454;42.654;23.378;2022-12-18T15:01:17;18.50;;;9.70;;
6832;SDS011;3454;42.654;23.378;2022-12-18T15:03:44;14.90;;;8.70;;
6832;SDS011;3454;42.654;23.378;2022-12-18T15:06:26;17.37;;;9.70;;
6832;SDS011;3454;42.654;23.378;2022-12-18T15:08:51;17.57;;;9.67;;
6832;SDS011;3454;42.654;23.378;2022-12-18T15:11:54;15.00;;;8.67;;
6832;SDS011;3454;42.654;23.378;2022-12-18T15:16:54;22.55;;;12.52;;
6832;SDS011;3454;42.654;23.378;2022-12-18T15:19:26;18.23;;;10.17;;
6832;SDS011;3454;42.654;23.378;2022-12-18T15:22:02;17.17;;;9.53;;
6832;SDS011;3454;42.654;23.378;2022-12-18T15:24:29;16.83;;;9.77;;
6832;SDS011;3454;42.654;23.378;2022-12-18T15:26:57;16.20;;;9.30;;
6832;SDS011;3454;42.654;23.378;2022-12-18T15:29:23;17.63;;;8.97;;
6832;SDS011;3454;42.654;23.378;2022-12-18T15:32:03;20.20;;;10.13;;
6832;SDS011;3454;42.654;23.378;2022-12-18T15:34:30;16.93;;;9.23;;
6832;SDS011;3454;42.654;23.378;2022-12-18T15:36:56;18.77;;;10.10;;
6832;SDS011;3454;42.654;23.378;2022-12-18T15:39:22;15.53;;;9.40;;
6832;SDS011;3454;42.654;23.378;2022-12-18T15:41:47;16.83;;;9.63;;
6832;SDS011;3454;42.654;23.378;2022-12-18T15:44:32;16.13;;;8.60;;
6832;SDS011;3454;42.654;23.378;2022-12-18T15:46:58;15.10;;;8.37;;
6832;SDS011;3454;42.654;23.378;2022-12-18T15:49:23;17.13;;;10.23;;
6832;SDS011;3454;42.654;23.378;2022-12-18T15:51:50;19.03;;;10.37;;
6832;SDS011;3454;42.654;23.378;2022-12-18T15:54:18;15.07;;;9.17;;
6832;SDS011;3454;42.654;23.378;2022-12-18T15:57:04;15.07;;;9.43;;
6832;SDS011;3454;42.654;23.378;2022-12-18T15:59:49;15.37;;;9.53;;
6832;SDS011;3454;42.654;23.378;2022-12-18T16:02:16;18.00;;;10.57;;
6832;SDS011;3454;42.654;23.378;2022-12-18T16:04:43;17.63;;;10.37;;
6832;SDS011;3454;42.654;23.378;2022-12-18T16:07:08;16.97;;;9.73;;
6832;SDS011;3454;42.654;23.378;2022-12-18T16:09:34;19.00;;;10.97;;
6832;SDS011;3454;42.654;23.378;2022-12-18T16:12:00;16.70;;;8.80;;
6832;SDS011;3454;42.654;23.378;2022-12-18T16:14:26;17.90;;;10.20;;
6832;SDS011;3454;42.654;23.378;2022-12-18T16:16:54;38.40;;;18.00;;
6832;SDS011;3454;42.654;23.378;2022-12-18T16:19:22;24.83;;;12.17;;
6832;SDS011;3454;42.654;23.378;2022-12-18T16:21:48;19.80;;;10.20;;
6832;SDS011;3454;42.654;23.378;2022-12-18T16:24:16;17.50;;;9.70;;
6832;SDS011;3454;42.654;23.378;2022-12-18T16:26:43;22.60;;;11.93;;
6832;SDS011;3454;42.654;23.378;2022-12-18T16:29:09;23.17;;;11.50;;
6832;SDS011;3454;42.654;23.378;2022-12-18T16:31:35;20.17;;;10.60;;
6832;SDS011;3454;42.654;23.378;2022-12-18T16:34:11;19.27;;;10.10;;
6832;SDS011;3454;42.654;23.378;2022-12-18T16:36:36;22.33;;;10.40;;
6832;SDS011;3454;42.654;23.378;2022-12-18T16:39:02;18.70;;;9.70;;
6832;SDS011;3454;42.654;23.378;2022-12-18T16:41:30;17.03;;;9.23;;
6832;SDS011;3454;42.654;23.378;2022-12-18T16:44:00;20.00;;;11.60;;
6832;SDS011;3454;42.654;23.378;2022-12-18T16:46:26;15.30;;;8.53;;
6832;SDS011;3454;42.654;23.378;2022-12-18T16:48:51;16.13;;;8.73;;
6832;SDS011;3454;42.654;23.378;2022-12-18T16:51:17;17.27;;;9.13;;
6832;SDS011;3454;42.654;23.378;2022-12-18T16:53:42;15.97;;;9.37;;
6832;SDS011;3454;42.654;23.378;2022-12-18T16:56:08;15.90;;;9.40;;
6832;SDS011;3454;42.654;23.378;2022-12-18T16:58:33;16.90;;;9.03;;
6832;SDS011;3454;42.654;23.378;2022-12-18T17:00:59;18.43;;;9.63;;